createdAt,value
2022-11-26T00:01:35.262Z,108.13
2022-11-26T00:03:37.208Z,100.20
2022-11-26T00:05:43.217Z,98.35
2022-11-26T00:07:58.635Z,89.10
2022-11-26T00:10:02.251Z,102.70
2022-11-26T00:12:20.285Z,106.63
2022-11-26T00:14:22.076Z,95.47
2022-11-26T00:16:24.046Z,96.10
2022-11-26T00:18:26.995Z,95.65
2022-11-26T00:20:31.828Z,96.88
2022-11-26T00:22:40.412Z,101.68
2022-11-26T00:24:45.588Z,96.07
2022-11-26T00:26:47.430Z,93.30
2022-11-26T00:29:00.452Z,107.93
2022-11-26T00:31:07.005Z,99.82
2022-11-26T00:33:09.893Z,96.53
2022-11-26T00:35:13.329Z,98.45
2022-11-26T00:37:24.895Z,105.50
2022-11-26T00:39:32.543Z,89.22
2022-11-26T00:41:38.415Z,97.97
2022-11-26T00:43:42.367Z,102.03
2022-11-26T00:45:44.517Z,94.95
2022-11-26T00:47:47.503Z,102.88
2022-11-26T00:49:54.366Z,94.45
2022-11-26T00:51:58.252Z,92.85
2022-11-26T00:54:04.192Z,96.55
2022-11-26T00:56:06.234Z,95.05
2022-11-26T00:58:21.399Z,100.47
2022-11-26T01:00:32.814Z,93.57
2022-11-26T01:02:35.713Z,98.05
2022-11-26T01:04:37.913Z,97.70
2022-11-26T01:06:43.350Z,88.57
2022-11-26T01:08:46.791Z,96.38
2022-11-26T01:10:55.816Z,102.50
2022-11-26T01:13:07.015Z,100.70
2022-11-26T01:15:09.170Z,104.78
2022-11-26T01:17:12.348Z,95.97
2022-11-26T01:19:15.893Z,91.93
2022-11-26T01:21:18.837Z,87.88
2022-11-26T01:23:21.096Z,95.75
2022-11-26T01:25:24.651Z,84.15
2022-11-26T01:27:28.514Z,89.70
2022-11-26T01:29:30.373Z,82.95
2022-11-26T01:31:33.277Z,97.93
2022-11-26T01:33:35.162Z,96.80
2022-11-26T01:35:41.079Z,88.47
2022-11-26T01:37:43.789Z,89.15
2022-11-26T01:39:49.717Z,86.32
2022-11-26T01:42:00.257Z,110.32
2022-11-26T01:44:07.749Z,89.90
2022-11-26T01:46:18.299Z,94.00
2022-11-26T01:48:28.284Z,95.25
2022-11-26T01:50:33.229Z,98.22
2022-11-26T01:52:37.114Z,91.40
2022-11-26T01:54:49.349Z,94.13
2022-11-26T01:56:57.210Z,89.35
2022-11-26T01:59:08.699Z,95.60
2022-11-26T02:01:16.839Z,99.93
2022-11-26T02:03:20.859Z,91.45
2022-11-26T02:05:28.668Z,101.70
2022-11-26T02:07:30.804Z,99.93
2022-11-26T02:09:33.669Z,91.57
2022-11-26T02:11:36.327Z,85.68
2022-11-26T02:13:38.193Z,95.85
2022-11-26T02:15:51.478Z,105.32
2022-11-26T02:18:03.308Z,97.35
2022-11-26T02:20:35.554Z,84.30
2022-11-26T02:22:49.797Z,83.30
2022-11-26T02:25:03.013Z,97.65
2022-11-26T02:27:26.363Z,112.80
2022-11-26T02:29:46.510Z,98.82
2022-11-26T02:31:50.352Z,95.65
2022-11-26T02:34:11.918Z,99.10
2022-11-26T02:36:21.495Z,103.20
2022-11-26T02:38:33.302Z,98.20
2022-11-26T02:40:35.372Z,93.63
2022-11-26T02:42:37.413Z,98.05
2022-11-26T02:44:45.133Z,95.20
2022-11-26T02:46:49.963Z,104.93
2022-11-26T02:48:53.173Z,86.20
2022-11-26T02:51:12.464Z,82.10
2022-11-26T02:53:19.369Z,87.80
2022-11-26T02:55:27.135Z,84.53
2022-11-26T02:57:37.053Z,82.38
2022-11-26T02:59:39.753Z,84.43
2022-11-26T03:01:52.944Z,86.65
2022-11-26T03:04:00.857Z,80.63
2022-11-26T03:06:10.063Z,90.28
2022-11-26T03:08:13.927Z,79.50
2022-11-26T03:10:16.995Z,82.43
2022-11-26T03:12:22.056Z,83.15
2022-11-26T03:14:23.930Z,81.43
2022-11-26T03:16:26.089Z,76.30
2022-11-26T03:18:28.165Z,75.40
2022-11-26T03:20:34.208Z,75.70
2022-11-26T03:22:38.149Z,76.55
2022-11-26T03:24:46.287Z,75.68
2022-11-26T03:26:50.237Z,73.95
2022-11-26T03:28:54.149Z,84.90
2022-11-26T03:30:55.989Z,82.50
2022-11-26T03:32:59.919Z,76.75
2022-11-26T03:35:02.953Z,72.80
2022-11-26T03:37:05.799Z,67.40
2022-11-26T03:39:08.652Z,64.93
2022-11-26T03:41:10.439Z,63.55
2022-11-26T03:43:12.301Z,58.97
2022-11-26T03:45:17.264Z,61.05
2022-11-26T03:47:19.241Z,64.85
2022-11-26T03:49:22.139Z,60.40
2022-11-26T03:51:23.960Z,60.78
2022-11-26T03:53:26.836Z,65.88
2022-11-26T03:55:28.719Z,61.63
2022-11-26T03:57:32.604Z,63.78
2022-11-26T03:59:37.757Z,60.92
2022-11-26T04:01:39.891Z,66.10
2022-11-26T04:03:42.873Z,60.97
2022-11-26T04:05:45.765Z,63.70
2022-11-26T04:07:50.771Z,66.57
2022-11-26T04:09:54.778Z,63.08
2022-11-26T04:11:56.645Z,64.28
2022-11-26T04:14:01.571Z,64.43
2022-11-26T04:16:03.468Z,62.80
2022-11-26T04:18:05.362Z,61.85
2022-11-26T04:20:09.789Z,68.47
2022-11-26T04:22:12.608Z,66.15
2022-11-26T04:24:15.475Z,64.70
2022-11-26T04:26:17.320Z,64.70
2022-11-26T04:28:20.142Z,67.97
2022-11-26T04:30:21.995Z,65.97
2022-11-26T04:32:25.972Z,60.05
2022-11-26T04:34:28.083Z,60.05
2022-11-26T04:36:32.671Z,55.55
2022-11-26T04:38:35.660Z,58.78
2022-11-26T04:40:37.738Z,57.15
2022-11-26T04:42:39.685Z,63.72
2022-11-26T04:44:41.631Z,58.88
2022-11-26T04:46:45.572Z,62.75
2022-11-26T04:48:48.375Z,61.75
2022-11-26T04:50:50.457Z,63.67
2022-11-26T04:52:52.365Z,61.75
2022-11-26T04:54:54.348Z,61.92
2022-11-26T04:56:58.196Z,58.92
2022-11-26T04:59:01.999Z,52.75
2022-11-26T05:01:04.169Z,47.75
2022-11-26T05:03:06.162Z,40.78
2022-11-26T05:05:08.422Z,42.70
2022-11-26T05:07:10.756Z,34.47
2022-11-26T05:09:14.657Z,38.15
2022-11-26T05:11:17.463Z,27.63
2022-11-26T05:13:20.361Z,27.70
2022-11-26T05:15:23.273Z,31.10
2022-11-26T05:17:25.162Z,30.77
2022-11-26T05:19:27.093Z,33.03
2022-11-26T05:21:29.007Z,29.80
2022-11-26T05:23:30.804Z,30.95
2022-11-26T05:25:32.709Z,31.58
2022-11-26T05:27:34.593Z,32.97
2022-11-26T05:29:39.373Z,34.05
2022-11-26T05:31:42.226Z,35.42
2022-11-26T05:33:45.162Z,33.88
2022-11-26T05:35:46.967Z,34.80
2022-11-26T05:37:48.796Z,33.10
2022-11-26T05:39:50.609Z,33.60
2022-11-26T05:41:52.400Z,31.73
2022-11-26T05:43:54.322Z,35.10
2022-11-26T05:45:57.287Z,34.08
2022-11-26T05:48:02.242Z,35.35
2022-11-26T05:50:05.629Z,40.90
2022-11-26T05:52:08.455Z,39.15
2022-11-26T05:54:19.148Z,35.67
2022-11-26T05:56:25.085Z,40.58
2022-11-26T05:58:30.015Z,37.92
2022-11-26T06:00:32.893Z,38.45
2022-11-26T06:02:34.836Z,41.88
2022-11-26T06:04:45.432Z,37.00
2022-11-26T06:06:49.380Z,40.97
2022-11-26T06:08:52.280Z,41.25
2022-11-26T06:10:56.258Z,41.72
2022-11-26T06:12:58.119Z,42.85
2022-11-26T06:15:00.033Z,39.90
2022-11-26T06:17:02.952Z,39.92
2022-11-26T06:19:04.868Z,42.53
2022-11-26T06:21:08.583Z,43.78
2022-11-26T06:23:10.832Z,38.15
2022-11-26T06:25:18.504Z,37.25
2022-11-26T06:27:20.289Z,37.42
2022-11-26T06:29:27.570Z,42.28
2022-11-26T06:31:29.944Z,39.20
2022-11-26T06:33:36.577Z,37.80
2022-11-26T06:35:38.536Z,40.60
2022-11-26T06:37:41.690Z,41.28
2022-11-26T06:39:45.548Z,40.80
2022-11-26T06:41:47.437Z,42.08
2022-11-26T06:43:49.323Z,41.83
2022-11-26T06:46:06.166Z,39.38
2022-11-26T06:48:08.171Z,41.72
2022-11-26T06:50:25.198Z,43.75
2022-11-26T06:52:36.873Z,44.15
2022-11-26T06:56:50.782Z,43.55
2022-11-26T06:58:57.423Z,42.38
2022-11-26T07:01:21.491Z,43.00
2022-11-26T07:03:29.306Z,43.70
2022-11-26T07:05:38.017Z,46.67
2022-11-26T07:07:40.509Z,42.50
2022-11-26T07:09:42.629Z,38.08
2022-11-26T07:11:44.688Z,35.08
2022-11-26T07:14:02.178Z,35.85
2022-11-26T07:16:05.979Z,37.25
2022-11-26T07:18:08.935Z,35.17
2022-11-26T07:20:16.081Z,30.98
2022-11-26T07:22:28.030Z,33.83
2022-11-26T07:24:31.203Z,38.35
2022-11-26T07:26:35.098Z,44.08
2022-11-26T07:28:47.431Z,42.40
2022-11-26T07:30:50.277Z,43.50
2022-11-26T07:32:54.104Z,43.00
2022-11-26T07:34:56.019Z,42.65
2022-11-26T07:36:58.881Z,41.50
2022-11-26T07:39:03.521Z,44.10
2022-11-26T07:41:10.199Z,44.03
2022-11-26T07:43:12.198Z,37.72
2022-11-26T07:45:14.194Z,35.97
2022-11-26T07:47:16.059Z,35.97
2022-11-26T07:49:17.996Z,32.88
2022-11-26T07:51:22.308Z,33.15
2022-11-26T07:53:28.631Z,32.78
2022-11-26T07:55:31.486Z,37.00
2022-11-26T07:57:35.399Z,40.17
2022-11-26T07:59:38.332Z,38.80
2022-11-26T08:01:43.189Z,35.88
2022-11-26T08:03:47.994Z,36.80
2022-11-26T08:05:50.941Z,38.67
2022-11-26T08:07:56.995Z,42.67
2022-11-26T08:10:06.714Z,38.78
2022-11-26T08:12:08.602Z,38.67
2022-11-26T08:14:12.830Z,38.33
2022-11-26T08:16:22.910Z,38.75
2022-11-26T08:18:24.845Z,38.58
2022-11-26T08:20:29.051Z,34.80
2022-11-26T08:22:32.240Z,31.73
2022-11-26T08:24:34.204Z,30.20
2022-11-26T08:26:39.849Z,29.52
2022-11-26T08:28:45.778Z,29.10
2022-11-26T08:31:01.847Z,32.83
2022-11-26T08:33:04.976Z,34.05
2022-11-26T08:35:07.161Z,31.77
2022-11-26T08:37:09.112Z,32.55
2022-11-26T08:39:17.564Z,32.03
2022-11-26T08:41:19.899Z,30.35
2022-11-26T08:43:34.546Z,30.08
2022-11-26T08:45:44.658Z,33.53
2022-11-26T08:47:46.601Z,33.67
2022-11-26T08:49:51.617Z,34.65
2022-11-26T08:51:57.397Z,36.67
2022-11-26T08:53:59.448Z,39.05
2022-11-26T08:56:10.993Z,36.05
2022-11-26T08:58:15.240Z,32.95
2022-11-26T09:00:18.571Z,35.80
2022-11-26T09:02:20.606Z,37.58
2022-11-26T09:04:22.618Z,33.28
2022-11-26T09:06:26.964Z,32.42
2022-11-26T09:08:29.929Z,29.00
2022-11-26T09:10:31.851Z,30.42
2022-11-26T09:12:33.727Z,27.75
2022-11-26T09:14:39.173Z,30.63
2022-11-26T09:16:43.892Z,28.33
2022-11-26T09:18:52.203Z,32.80
2022-11-26T09:20:57.178Z,26.98
2022-11-26T09:22:59.311Z,28.80
2022-11-26T09:25:01.277Z,27.08
2022-11-26T09:27:12.160Z,26.02
2022-11-26T09:29:16.087Z,26.30
2022-11-26T09:31:21.214Z,26.50
2022-11-26T09:33:30.001Z,27.65
2022-11-26T09:35:32.241Z,28.90
2022-11-26T09:37:36.157Z,30.65
2022-11-26T09:39:45.154Z,28.02
2022-11-26T09:42:14.731Z,28.60
2022-11-26T09:44:40.904Z,30.30
2022-11-26T09:47:12.192Z,27.75
2022-11-26T09:49:16.104Z,29.67
2022-11-26T09:51:20.663Z,28.98
2022-11-26T09:53:41.798Z,28.88
2022-11-26T09:55:47.891Z,27.33
2022-11-26T09:58:33.076Z,27.73
2022-11-26T10:00:42.818Z,30.00
2022-11-26T10:02:44.741Z,32.22
2022-11-26T10:04:47.218Z,29.02
2022-11-26T10:06:59.275Z,31.08
2022-11-26T10:09:22.327Z,28.27
2022-11-26T10:11:55.876Z,30.55
2022-11-26T10:14:09.965Z,30.15
2022-11-26T10:16:40.540Z,29.08
2022-11-26T10:19:05.540Z,30.38
2022-11-26T10:21:18.269Z,30.05
2022-11-26T10:23:36.150Z,32.22
2022-11-26T10:25:54.751Z,30.17
2022-11-26T10:27:58.527Z,30.02
2022-11-26T10:30:09.730Z,30.80
2022-11-26T10:32:27.472Z,30.65
2022-11-26T10:34:46.416Z,29.90
2022-11-26T10:36:49.582Z,32.03
2022-11-26T10:38:52.956Z,32.88
2022-11-26T10:40:54.814Z,31.88
2022-11-26T10:42:59.578Z,28.23
2022-11-26T10:45:21.128Z,29.02
2022-11-26T10:47:32.588Z,26.85
2022-11-26T10:51:38.689Z,24.02
2022-11-26T10:54:01.587Z,25.70
2022-11-26T10:56:07.569Z,25.35
2022-11-26T10:58:19.820Z,26.20
2022-11-26T11:00:27.692Z,22.83
2022-11-26T11:02:41.475Z,27.30
2022-11-26T11:05:06.228Z,25.40
2022-11-26T11:07:29.696Z,26.55
2022-11-26T11:09:35.459Z,21.80
2022-11-26T11:11:37.227Z,22.85
2022-11-26T11:13:44.940Z,22.83
2022-11-26T11:15:46.880Z,23.55
2022-11-26T11:18:13.391Z,26.25
2022-11-26T11:20:15.267Z,27.60
2022-11-26T11:22:21.171Z,25.38
2022-11-26T11:24:30.027Z,24.00
2022-11-26T11:26:40.376Z,21.50
2022-11-26T11:28:48.575Z,22.40
2022-11-26T11:31:02.701Z,24.88
2022-11-26T11:33:17.013Z,26.67
2022-11-26T11:35:26.186Z,22.40
2022-11-26T11:37:28.446Z,25.13
2022-11-26T11:39:35.490Z,23.75
2022-11-26T11:41:38.415Z,24.90
2022-11-26T11:43:42.291Z,24.23
2022-11-26T11:45:55.946Z,23.50
2022-11-26T11:48:04.335Z,23.58
2022-11-26T11:50:21.262Z,22.08
2022-11-26T11:52:34.905Z,23.05
2022-11-26T11:54:57.150Z,25.13
2022-11-26T11:57:07.369Z,24.17
2022-11-26T12:00:09.792Z,25.13
2022-11-26T12:04:38.276Z,23.65
2022-11-26T12:06:49.339Z,21.93
2022-11-26T12:09:00.043Z,23.57
2022-11-26T12:11:22.558Z,25.13
2022-11-26T12:13:27.029Z,25.83
2022-11-26T12:15:34.035Z,25.73
2022-11-26T12:17:47.699Z,26.73
2022-11-26T12:20:04.613Z,26.85
2022-11-26T12:22:30.060Z,26.58
2022-11-26T12:25:01.842Z,26.10
2022-11-26T12:27:52.773Z,23.98
2022-11-26T12:30:14.934Z,23.48
2022-11-26T12:32:21.987Z,25.83
2022-11-26T12:34:31.754Z,24.17
2022-11-26T12:36:51.366Z,26.00
2022-11-26T12:38:57.776Z,28.92
2022-11-26T12:41:06.839Z,28.88
2022-11-26T12:43:19.208Z,31.20
2022-11-26T12:45:39.114Z,26.13
2022-11-26T12:47:52.066Z,28.05
2022-11-26T12:50:09.480Z,21.80
2022-11-26T12:52:14.067Z,23.35
2022-11-26T12:54:24.098Z,24.95
2022-11-26T12:56:32.535Z,26.95
2022-11-26T12:59:06.165Z,27.33
2022-11-26T13:01:14.053Z,26.48
2022-11-26T13:03:32.411Z,25.95
2022-11-26T13:06:16.241Z,28.13
2022-11-26T13:08:20.572Z,27.05
2022-11-26T13:10:28.340Z,24.58
2022-11-26T13:12:46.901Z,27.80
2022-11-26T13:14:52.357Z,27.67
2022-11-26T13:17:14.298Z,28.85
2022-11-26T13:21:46.212Z,28.90
2022-11-26T13:23:51.182Z,25.42
2022-11-26T13:26:36.711Z,27.30
2022-11-26T13:28:56.022Z,28.27
2022-11-26T13:31:06.253Z,31.35
2022-11-26T13:33:23.049Z,34.28
2022-11-26T13:35:57.287Z,29.40
2022-11-26T13:38:20.629Z,34.70
2022-11-26T13:40:53.593Z,27.63
2022-11-26T13:43:43.556Z,29.52
2022-11-26T13:46:16.451Z,28.65
2022-11-26T13:48:43.014Z,30.40
2022-11-26T13:50:53.099Z,27.35
2022-11-26T13:53:14.381Z,30.98
2022-11-26T13:55:22.739Z,34.13
2022-11-26T13:57:31.826Z,31.23
2022-11-26T13:59:34.817Z,32.28
2022-11-26T14:01:43.335Z,28.98
2022-11-26T14:03:49.048Z,29.23
2022-11-26T14:05:50.926Z,27.38
2022-11-26T14:08:38.622Z,30.75
2022-11-26T14:10:42.759Z,32.47
2022-11-26T14:13:02.859Z,31.77
2022-11-26T14:15:41.247Z,32.42
2022-11-26T14:17:57.214Z,32.22
2022-11-26T14:20:01.093Z,34.35
2022-11-26T14:22:04.004Z,32.67
2022-11-26T14:24:05.968Z,32.13
2022-11-26T14:26:12.599Z,35.28
2022-11-26T14:28:16.512Z,33.25
2022-11-26T14:30:27.534Z,30.80
2022-11-26T14:32:34.052Z,35.03
2022-11-26T14:34:47.664Z,30.90
2022-11-26T14:37:00.236Z,32.97
2022-11-26T14:39:09.397Z,33.67
2022-11-26T14:41:18.074Z,32.88
2022-11-26T14:43:20.337Z,32.58
2022-11-26T14:45:24.415Z,31.98
2022-11-26T14:47:27.664Z,33.35
2022-11-26T14:49:43.201Z,32.70
2022-11-26T14:51:48.012Z,30.02
2022-11-26T14:53:51.126Z,31.58
2022-11-26T14:55:53.614Z,29.48
2022-11-26T14:58:09.157Z,36.20
2022-11-26T15:00:16.080Z,30.27
2022-11-26T15:02:25.784Z,29.00
2022-11-26T15:04:39.180Z,30.60
2022-11-26T15:06:43.468Z,32.17
2022-11-26T15:08:46.325Z,33.00
2022-11-26T15:10:50.416Z,31.40
2022-11-26T15:12:53.603Z,32.40
2022-11-26T15:14:59.165Z,31.73
2022-11-26T15:17:02.818Z,36.38
2022-11-26T15:19:07.368Z,29.77
2022-11-26T15:21:18.515Z,34.88
2022-11-26T15:23:39.649Z,29.40
2022-11-26T15:25:48.847Z,32.30
2022-11-26T15:28:00.529Z,28.20
2022-11-26T15:32:28.042Z,29.20
2022-11-26T15:34:33.223Z,32.40
2022-11-26T15:36:35.186Z,35.03
2022-11-26T15:39:03.894Z,31.50
2022-11-26T15:41:08.557Z,32.42
2022-11-26T15:43:45.898Z,30.60
2022-11-26T15:45:49.066Z,29.95
2022-11-26T15:47:54.708Z,28.80
2022-11-26T15:50:01.089Z,28.50
2022-11-26T15:52:15.597Z,26.88
2022-11-26T15:54:30.821Z,28.25
2022-11-26T15:56:40.569Z,28.42
2022-11-26T15:58:43.231Z,29.38
2022-11-26T16:00:51.757Z,27.50
2022-11-26T16:02:54.973Z,26.63
2022-11-26T16:05:01.536Z,26.17
2022-11-26T16:07:21.944Z,26.65
2022-11-26T16:09:31.910Z,28.83
2022-11-26T16:11:37.139Z,29.00
2022-11-26T16:13:39.023Z,28.25
2022-11-26T16:16:04.527Z,26.65
2022-11-26T16:18:17.005Z,30.55
2022-11-26T16:20:25.172Z,29.35
2022-11-26T16:22:33.098Z,27.02
2022-11-26T16:24:43.935Z,28.75
2022-11-26T16:26:58.474Z,28.85
2022-11-26T16:29:00.413Z,27.83
2022-11-26T16:31:02.829Z,25.60
2022-11-26T16:33:08.506Z,25.17
2022-11-26T16:35:43.637Z,25.00
2022-11-26T16:37:44.383Z,24.65
2022-11-26T16:39:47.457Z,25.15
2022-11-26T16:41:49.329Z,24.95
2022-11-26T16:43:54.780Z,23.33
2022-11-26T16:45:59.271Z,24.13
2022-11-26T16:48:02.437Z,24.08
2022-11-26T16:50:05.231Z,22.33
2022-11-26T16:52:12.533Z,24.08
2022-11-26T16:54:17.315Z,27.77
2022-11-26T16:56:39.079Z,26.00
2022-11-26T17:00:51.356Z,23.55
2022-11-26T17:02:54.322Z,21.80
2022-11-26T17:04:56.397Z,25.60
2022-11-26T17:06:58.462Z,23.83
2022-11-26T17:09:01.428Z,27.13
2022-11-26T17:11:06.545Z,22.65
2022-11-26T17:13:08.933Z,24.85
2022-11-26T17:15:11.598Z,25.98
2022-11-26T17:17:29.564Z,28.63
2022-11-26T17:19:34.947Z,33.13
2022-11-26T17:21:36.873Z,30.60
2022-11-26T17:23:39.665Z,32.33
2022-11-26T17:25:48.897Z,31.80
2022-11-26T17:27:50.924Z,31.88
2022-11-26T17:29:57.555Z,30.55
2022-11-26T17:32:01.751Z,29.55
2022-11-26T17:34:03.914Z,23.77
2022-11-26T17:36:16.966Z,25.50
2022-11-26T17:38:22.300Z,23.88
2022-11-26T17:40:27.390Z,25.08
2022-11-26T17:42:33.579Z,25.05
2022-11-26T17:44:43.590Z,28.23
2022-11-26T17:47:09.543Z,27.92
2022-11-26T17:49:16.254Z,23.85
2022-11-26T17:51:19.925Z,25.52
2022-11-26T17:53:25.117Z,27.75
2022-11-26T17:55:33.960Z,24.85
2022-11-26T17:57:36.392Z,29.33
2022-11-26T17:59:40.012Z,30.10
2022-11-26T18:01:43.713Z,29.85
2022-11-26T18:03:46.414Z,27.85
2022-11-26T18:05:48.428Z,26.90
2022-11-26T18:07:50.969Z,27.42
2022-11-26T18:09:53.238Z,23.25
2022-11-26T18:11:56.451Z,26.23
2022-11-26T18:13:58.500Z,26.58
2022-11-26T18:16:00.857Z,27.92
2022-11-26T18:18:03.255Z,26.98
2022-11-26T18:20:06.084Z,25.98
2022-11-26T18:22:15.399Z,27.00
2022-11-26T18:24:21.205Z,27.05
2022-11-26T18:26:23.134Z,28.38
2022-11-26T18:28:25.250Z,30.30
2022-11-26T18:30:27.673Z,28.88
2022-11-26T18:32:31.207Z,27.85
2022-11-26T18:34:33.283Z,28.95
2022-11-26T18:36:48.214Z,29.33
2022-11-26T18:38:57.909Z,31.08
2022-11-26T18:41:08.565Z,32.15
2022-11-26T18:43:12.363Z,28.15
2022-11-26T18:45:18.484Z,33.53
2022-11-26T18:47:21.090Z,30.92
2022-11-26T18:49:23.376Z,31.25
2022-11-26T18:51:30.275Z,31.58
2022-11-26T18:53:32.990Z,35.38
2022-11-26T18:55:39.585Z,33.17
2022-11-26T18:57:42.056Z,33.13
2022-11-26T18:59:47.496Z,35.30
2022-11-26T19:01:51.145Z,34.22
2022-11-26T19:03:55.836Z,35.58
2022-11-26T19:05:59.116Z,38.80
2022-11-26T19:08:03.434Z,36.55
2022-11-26T19:10:06.139Z,36.00
2022-11-26T19:12:08.498Z,36.05
2022-11-26T19:14:13.862Z,35.85
2022-11-26T19:16:18.095Z,38.00
2022-11-26T19:18:20.661Z,35.90
2022-11-26T19:20:23.268Z,36.88
2022-11-26T19:22:25.301Z,39.08
2022-11-26T19:24:29.090Z,36.72
2022-11-26T19:26:31.740Z,38.75
2022-11-26T19:28:33.865Z,37.45
2022-11-26T19:30:37.855Z,34.53
2022-11-26T19:32:40.789Z,36.30
2022-11-26T19:34:43.140Z,35.92
2022-11-26T19:36:48.970Z,37.75
2022-11-26T19:38:56.560Z,36.63
2022-11-26T19:41:00.613Z,35.63
2022-11-26T19:43:02.915Z,37.20
2022-11-26T19:45:05.506Z,38.00
2022-11-26T19:47:07.872Z,36.53
2022-11-26T19:49:13.529Z,37.70
2022-11-26T19:51:17.669Z,35.13
2022-11-26T19:53:20.043Z,36.53
2022-11-26T19:55:23.744Z,34.10
2022-11-26T19:57:26.560Z,38.95
2022-11-26T19:59:29.310Z,38.28
2022-11-26T20:01:35.154Z,38.03
2022-11-26T20:03:37.953Z,35.50
2022-11-26T20:05:40.828Z,38.88
2022-11-26T20:07:45.787Z,38.40
2022-11-26T20:09:51.926Z,39.63
2022-11-26T20:11:54.194Z,38.42
2022-11-26T20:13:57.461Z,39.97
2022-11-26T20:16:00.554Z,38.78
2022-11-26T20:18:02.911Z,42.92
2022-11-26T20:20:05.443Z,39.63
2022-11-26T20:22:07.834Z,42.55
2022-11-26T20:24:14.972Z,41.15
2022-11-26T20:26:19.587Z,42.25
2022-11-26T20:28:22.452Z,39.88
2022-11-26T20:30:26.548Z,39.65
2022-11-26T20:32:28.473Z,39.53
2022-11-26T20:34:33.805Z,40.60
2022-11-26T20:36:38.219Z,44.60
2022-11-26T20:38:40.604Z,42.97
2022-11-26T20:40:43.814Z,43.63
2022-11-26T20:42:46.943Z,46.47
2022-11-26T20:44:49.432Z,41.03
2022-11-26T20:46:52.457Z,40.13
2022-11-26T20:48:54.831Z,40.50
2022-11-26T20:51:01.590Z,40.40
2022-11-26T20:53:04.847Z,37.33
2022-11-26T20:55:07.965Z,40.92
2022-11-26T20:57:10.187Z,42.25
2022-11-26T20:59:12.655Z,47.33
2022-11-26T21:01:29.099Z,39.05
2022-11-26T21:03:32.220Z,43.13
2022-11-26T21:05:34.412Z,44.97
2022-11-26T21:07:38.594Z,37.80
2022-11-26T21:09:42.646Z,41.70
2022-11-26T21:11:46.618Z,40.78
2022-11-26T21:13:48.951Z,44.80
2022-11-26T21:15:51.338Z,41.75
2022-11-26T21:17:54.362Z,43.17
2022-11-26T21:19:56.520Z,43.10
2022-11-26T21:21:58.417Z,45.38
2022-11-26T21:24:04.695Z,39.75
2022-11-26T21:26:11.909Z,44.15
2022-11-26T21:28:15.092Z,46.05
2022-11-26T21:30:17.683Z,42.70
2022-11-26T21:32:19.585Z,43.63
2022-11-26T21:34:21.527Z,41.35
2022-11-26T21:36:24.948Z,43.28
2022-11-26T21:38:27.001Z,42.97
2022-11-26T21:40:29.321Z,44.15
2022-11-26T21:42:31.258Z,42.75
2022-11-26T21:44:33.621Z,47.70
2022-11-26T21:46:38.634Z,42.70
2022-11-26T21:48:40.939Z,45.00
2022-11-26T21:50:42.939Z,44.83
2022-11-26T21:52:45.181Z,45.33
2022-11-26T21:54:48.457Z,47.72
2022-11-26T21:56:50.503Z,44.80
2022-11-26T21:58:52.880Z,48.33
2022-11-26T22:00:57.316Z,49.78
2022-11-26T22:02:59.511Z,47.47
2022-11-26T22:05:01.514Z,45.55
2022-11-26T22:07:04.069Z,45.15
2022-11-26T22:09:06.399Z,43.80
2022-11-26T22:11:14.036Z,44.90
2022-11-26T22:13:16.156Z,43.72
2022-11-26T22:15:18.335Z,44.72
2022-11-26T22:17:20.425Z,50.72
2022-11-26T22:19:22.497Z,44.22
2022-11-26T22:21:25.942Z,48.42
2022-11-26T22:23:30.877Z,43.58
2022-11-26T22:25:33.808Z,45.78
2022-11-26T22:27:35.739Z,41.33
2022-11-26T22:29:38.236Z,43.25
2022-11-26T22:31:40.843Z,41.67
2022-11-26T22:33:42.956Z,43.55
2022-11-26T22:35:45.049Z,40.88
2022-11-26T22:37:46.913Z,43.38
2022-11-26T22:39:53.625Z,43.08
2022-11-26T22:41:55.879Z,40.38
2022-11-26T22:44:03.768Z,45.60
2022-11-26T22:46:07.616Z,46.50
2022-11-26T22:48:12.050Z,40.70
2022-11-26T22:50:16.316Z,44.30
2022-11-26T22:52:18.423Z,44.70
2022-11-26T22:54:21.509Z,43.88
2022-11-26T22:56:23.805Z,47.58
2022-11-26T22:58:30.295Z,42.17
2022-11-26T23:01:07.866Z,43.17
2022-11-26T23:03:09.973Z,44.25
2022-11-26T23:05:12.003Z,45.55
2022-11-26T23:07:15.107Z,44.58
2022-11-26T23:09:17.185Z,43.75
2022-11-26T23:11:25.487Z,43.65
2022-11-26T23:13:27.465Z,41.88
2022-11-26T23:15:29.573Z,41.53
2022-11-26T23:17:31.477Z,39.25
2022-11-26T23:19:33.496Z,41.45
2022-11-26T23:21:40.094Z,39.88
2022-11-26T23:23:43.182Z,39.35
2022-11-26T23:25:45.191Z,37.75
2022-11-26T23:27:47.806Z,38.10
2022-11-26T23:29:49.879Z,46.20
2022-11-26T23:31:51.886Z,38.33
2022-11-26T23:33:53.990Z,39.05
2022-11-26T23:35:56.866Z,41.20
2022-11-26T23:37:58.804Z,36.67
2022-11-26T23:40:00.825Z,38.40
2022-11-26T23:42:02.886Z,39.42
2022-11-26T23:44:05.088Z,36.75
2022-11-26T23:46:28.221Z,36.58
2022-11-26T23:48:30.818Z,39.58
2022-11-26T23:50:33.996Z,41.80
2022-11-26T23:52:36.533Z,39.63
2022-11-26T23:54:38.459Z,39.25
2022-11-26T23:56:44.581Z,38.88
2022-11-26T23:59:00.536Z,40.33
